Northland, Minnesota
Current Conditions -  °F | °C
As of 3:55 PM on Thursday 18 Dec 2014 (Local Time) from KDLH Reporting Station
Overcast Overcast  
Wind Chill: 16°   Ceiling: 1700
Heat Index: 24°   Visibility: 10mi
Dew Point: 17°   Wind: 7mph
Humidity: 75%   Direction: 100°E
Pressure: 30.21"   Gusts: NA
Location:  47.068°N, 92.4547°W
Report Text: KDLH 182155Z 10006KT 10SM OVC017 M04/M08 A3021 RMK AO2 SLP260 T10441083
Loading
Personal Weather Stations






























Interactive Weather Map New forecast layout! Learn more

10-Day Weather Forecast

Advertisements
Track Severe Weather on mobile